sensor_id;sensor_type;location;lat;lon;timestamp;pressure;altitude;pressure_sealevel;temperature
58307;BMP280;44116;50.884;4.768;2023-07-29T00:03:50;100170.0;;;19.9
58307;BMP280;44116;50.884;4.768;2023-07-29T00:05:50;100170.0;;;19.8
58307;BMP280;44116;50.884;4.768;2023-07-29T00:11:50;100160.0;;;20.2
58307;BMP280;44116;50.884;4.768;2023-07-29T00:13:50;100170.0;;;20.2
58307;BMP280;44116;50.884;4.768;2023-07-29T00:15:50;100160.0;;;20.1
58307;BMP280;44116;50.884;4.768;2023-07-29T00:17:50;100160.0;;;20.2
58307;BMP280;44116;50.884;4.768;2023-07-29T00:19:50;100160.0;;;20.2
58307;BMP280;44116;50.884;4.768;2023-07-29T00:25:50;100170.0;;;20.2
58307;BMP280;44116;50.884;4.768;2023-07-29T00:27:50;100170.0;;;20.1
58307;BMP280;44116;50.884;4.768;2023-07-29T00:29:50;100170.0;;;20.0
58307;BMP280;44116;50.884;4.768;2023-07-29T00:31:50;100170.0;;;20.1
58307;BMP280;44116;50.884;4.768;2023-07-29T00:33:50;100170.0;;;20.1
58307;BMP280;44116;50.884;4.768;2023-07-29T00:35:50;100180.0;;;19.9
58307;BMP280;44116;50.884;4.768;2023-07-29T00:37:50;100180.0;;;20.3
58307;BMP280;44116;50.884;4.768;2023-07-29T00:43:50;100190.0;;;19.8
58307;BMP280;44116;50.884;4.768;2023-07-29T00:45:50;100200.0;;;20.0
58307;BMP280;44116;50.884;4.768;2023-07-29T00:47:50;100200.0;;;19.8
58307;BMP280;44116;50.884;4.768;2023-07-29T00:49:50;100210.0;;;19.6
58307;BMP280;44116;50.884;4.768;2023-07-29T00:51:50;100210.0;;;19.4
58307;BMP280;44116;50.884;4.768;2023-07-29T00:53:50;100210.0;;;19.3
58307;BMP280;44116;50.884;4.768;2023-07-29T00:55:50;100200.0;;;19.3
58307;BMP280;44116;50.884;4.768;2023-07-29T00:57:50;100200.0;;;19.2
58307;BMP280;44116;50.884;4.768;2023-07-29T00:59:50;100200.0;;;19.2
58307;BMP280;44116;50.884;4.768;2023-07-29T01:03:50;100210.0;;;19.0
58307;BMP280;44116;50.884;4.768;2023-07-29T01:05:52;100210.0;;;19.1
58307;BMP280;44116;50.884;4.768;2023-07-29T01:07:52;100210.0;;;19.1
58307;BMP280;44116;50.884;4.768;2023-07-29T01:09:51;100220.0;;;19.0
58307;BMP280;44116;50.884;4.768;2023-07-29T01:11:52;100220.0;;;18.9
58307;BMP280;44116;50.884;4.768;2023-07-29T01:13:50;100220.0;;;18.7
58307;BMP280;44116;50.884;4.768;2023-07-29T01:15:53;100210.0;;;18.8
58307;BMP280;44116;50.884;4.768;2023-07-29T01:17:52;100210.0;;;18.6
58307;BMP280;44116;50.884;4.768;2023-07-29T01:19:55;100220.0;;;18.7
58307;BMP280;44116;50.884;4.768;2023-07-29T01:23:52;100230.0;;;18.7
58307;BMP280;44116;50.884;4.768;2023-07-29T01:25:50;100230.0;;;18.6
58307;BMP280;44116;50.884;4.768;2023-07-29T01:27:51;100230.0;;;18.7
58307;BMP280;44116;50.884;4.768;2023-07-29T01:29:50;100230.0;;;18.6
58307;BMP280;44116;50.884;4.768;2023-07-29T01:33:58;100210.0;;;18.5
58307;BMP280;44116;50.884;4.768;2023-07-29T01:39:50;100220.0;;;18.5
58307;BMP280;44116;50.884;4.768;2023-07-29T01:41:50;100210.0;;;18.4
58307;BMP280;44116;50.884;4.768;2023-07-29T01:43:50;100210.0;;;18.3
58307;BMP280;44116;50.884;4.768;2023-07-29T01:45:50;100210.0;;;18.2
58307;BMP280;44116;50.884;4.768;2023-07-29T01:47:50;100200.0;;;18.2
58307;BMP280;44116;50.884;4.768;2023-07-29T01:49:50;100210.0;;;18.4
58307;BMP280;44116;50.884;4.768;2023-07-29T01:51:50;100220.0;;;18.0
58307;BMP280;44116;50.884;4.768;2023-07-29T01:55:50;100210.0;;;17.9
58307;BMP280;44116;50.884;4.768;2023-07-29T01:57:50;100210.0;;;18.2
58307;BMP280;44116;50.884;4.768;2023-07-29T02:01:50;100200.0;;;18.1
58307;BMP280;44116;50.884;4.768;2023-07-29T02:03:50;100200.0;;;17.9
58307;BMP280;44116;50.884;4.768;2023-07-29T02:05:50;100200.0;;;18.2
58307;BMP280;44116;50.884;4.768;2023-07-29T02:09:49;100210.0;;;18.1
58307;BMP280;44116;50.884;4.768;2023-07-29T02:11:49;100220.0;;;18.0
58307;BMP280;44116;50.884;4.768;2023-07-29T02:13:49;100220.0;;;18.1
58307;BMP280;44116;50.884;4.768;2023-07-29T02:15:49;100220.0;;;18.0
58307;BMP280;44116;50.884;4.768;2023-07-29T02:17:49;100210.0;;;18.0
58307;BMP280;44116;50.884;4.768;2023-07-29T02:19:49;100210.0;;;18.0
58307;BMP280;44116;50.884;4.768;2023-07-29T02:21:49;100210.0;;;17.9
58307;BMP280;44116;50.884;4.768;2023-07-29T02:23:49;100210.0;;;18.0
58307;BMP280;44116;50.884;4.768;2023-07-29T02:25:49;100200.0;;;17.9
58307;BMP280;44116;50.884;4.768;2023-07-29T02:27:51;100200.0;;;17.9
58307;BMP280;44116;50.884;4.768;2023-07-29T02:33:50;100190.0;;;17.8
58307;BMP280;44116;50.884;4.768;2023-07-29T02:35:49;100190.0;;;17.9
58307;BMP280;44116;50.884;4.768;2023-07-29T02:37:49;100200.0;;;17.8
58307;BMP280;44116;50.884;4.768;2023-07-29T02:41:49;100200.0;;;17.7
58307;BMP280;44116;50.884;4.768;2023-07-29T02:45:49;100210.0;;;17.7
58307;BMP280;44116;50.884;4.768;2023-07-29T02:49:49;100210.0;;;17.9
58307;BMP280;44116;50.884;4.768;2023-07-29T02:51:49;100210.0;;;17.8
58307;BMP280;44116;50.884;4.768;2023-07-29T02:53:49;100190.0;;;18.1
58307;BMP280;44116;50.884;4.768;2023-07-29T02:55:49;100200.0;;;18.0
58307;BMP280;44116;50.884;4.768;2023-07-29T02:57:49;100200.0;;;18.2
58307;BMP280;44116;50.884;4.768;2023-07-29T02:59:49;100200.0;;;18.0
58307;BMP280;44116;50.884;4.768;2023-07-29T03:01:49;100210.0;;;17.9
58307;BMP280;44116;50.884;4.768;2023-07-29T03:03:49;100220.0;;;17.8
58307;BMP280;44116;50.884;4.768;2023-07-29T03:05:49;100230.0;;;17.8
58307;BMP280;44116;50.884;4.768;2023-07-29T03:07:49;100220.0;;;17.9
58307;BMP280;44116;50.884;4.768;2023-07-29T03:09:49;100210.0;;;17.9
58307;BMP280;44116;50.884;4.768;2023-07-29T03:11:49;100200.0;;;17.9
58307;BMP280;44116;50.884;4.768;2023-07-29T03:13:49;100190.0;;;17.9
58307;BMP280;44116;50.884;4.768;2023-07-29T03:15:49;100190.0;;;17.7
58307;BMP280;44116;50.884;4.768;2023-07-29T03:17:49;100180.0;;;17.7
58307;BMP280;44116;50.884;4.768;2023-07-29T03:19:48;100180.0;;;17.9
58307;BMP280;44116;50.884;4.768;2023-07-29T03:21:49;100170.0;;;17.9
58307;BMP280;44116;50.884;4.768;2023-07-29T03:29:48;100170.0;;;17.5
58307;BMP280;44116;50.884;4.768;2023-07-29T03:31:48;100160.0;;;17.6
58307;BMP280;44116;50.884;4.768;2023-07-29T03:35:48;100150.0;;;17.5
58307;BMP280;44116;50.884;4.768;2023-07-29T03:47:48;100160.0;;;17.5
58307;BMP280;44116;50.884;4.768;2023-07-29T03:51:48;100170.0;;;17.3
58307;BMP280;44116;50.884;4.768;2023-07-29T03:53:48;100180.0;;;17.4
58307;BMP280;44116;50.884;4.768;2023-07-29T03:55:48;100180.0;;;17.3
58307;BMP280;44116;50.884;4.768;2023-07-29T03:57:48;100180.0;;;17.3
58307;BMP280;44116;50.884;4.768;2023-07-29T03:59:48;100190.0;;;17.2
58307;BMP280;44116;50.884;4.768;2023-07-29T04:05:48;100160.0;;;17.4
58307;BMP280;44116;50.884;4.768;2023-07-29T04:07:47;100170.0;;;17.4
58307;BMP280;44116;50.884;4.768;2023-07-29T04:09:47;100170.0;;;17.3
58307;BMP280;44116;50.884;4.768;2023-07-29T04:11:47;100180.0;;;17.4
58307;BMP280;44116;50.884;4.768;2023-07-29T04:13:47;100190.0;;;17.5
58307;BMP280;44116;50.884;4.768;2023-07-29T04:15:47;100190.0;;;17.5
58307;BMP280;44116;50.884;4.768;2023-07-29T04:17:47;100200.0;;;17.5
58307;BMP280;44116;50.884;4.768;2023-07-29T04:19:47;100200.0;;;17.4
58307;BMP280;44116;50.884;4.768;2023-07-29T04:21:47;100200.0;;;17.5
58307;BMP280;44116;50.884;4.768;2023-07-29T04:23:47;100210.0;;;17.4
58307;BMP280;44116;50.884;4.768;2023-07-29T04:25:47;100210.0;;;17.5
58307;BMP280;44116;50.884;4.768;2023-07-29T04:27:47;100210.0;;;17.3
58307;BMP280;44116;50.884;4.768;2023-07-29T04:29:47;100210.0;;;17.3
58307;BMP280;44116;50.884;4.768;2023-07-29T04:31:47;100210.0;;;17.4
58307;BMP280;44116;50.884;4.768;2023-07-29T04:33:47;100220.0;;;17.4
58307;BMP280;44116;50.884;4.768;2023-07-29T04:35:47;100210.0;;;17.5
58307;BMP280;44116;50.884;4.768;2023-07-29T04:37:47;100220.0;;;17.5
58307;BMP280;44116;50.884;4.768;2023-07-29T04:41:46;100220.0;;;17.3
58307;BMP280;44116;50.884;4.768;2023-07-29T04:49:46;100230.0;;;17.5
58307;BMP280;44116;50.884;4.768;2023-07-29T04:51:46;100230.0;;;17.4
58307;BMP280;44116;50.884;4.768;2023-07-29T04:53:46;100230.0;;;17.4
58307;BMP280;44116;50.884;4.768;2023-07-29T04:55:46;100240.0;;;17.5
58307;BMP280;44116;50.884;4.768;2023-07-29T04:57:46;100230.0;;;17.7
58307;BMP280;44116;50.884;4.768;2023-07-29T04:59:46;100230.0;;;17.8
58307;BMP280;44116;50.884;4.768;2023-07-29T05:01:46;100240.0;;;17.7
58307;BMP280;44116;50.884;4.768;2023-07-29T05:03:46;100240.0;;;17.9
58307;BMP280;44116;50.884;4.768;2023-07-29T05:05:46;100240.0;;;18.0
58307;BMP280;44116;50.884;4.768;2023-07-29T05:09:46;100230.0;;;17.9
58307;BMP280;44116;50.884;4.768;2023-07-29T05:11:46;100230.0;;;18.1
58307;BMP280;44116;50.884;4.768;2023-07-29T05:13:46;100240.0;;;18.1
58307;BMP280;44116;50.884;4.768;2023-07-29T05:15:46;100240.0;;;18.2
58307;BMP280;44116;50.884;4.768;2023-07-29T05:17:45;100240.0;;;18.3
58307;BMP280;44116;50.884;4.768;2023-07-29T05:19:45;100240.0;;;18.3
58307;BMP280;44116;50.884;4.768;2023-07-29T05:21:45;100240.0;;;17.9
58307;BMP280;44116;50.884;4.768;2023-07-29T05:23:45;100240.0;;;18.0
58307;BMP280;44116;50.884;4.768;2023-07-29T05:25:45;100240.0;;;17.9
58307;BMP280;44116;50.884;4.768;2023-07-29T05:27:45;100240.0;;;18.0
58307;BMP280;44116;50.884;4.768;2023-07-29T05:29:45;100240.0;;;17.9
58307;BMP280;44116;50.884;4.768;2023-07-29T05:31:45;100250.0;;;18.0
58307;BMP280;44116;50.884;4.768;2023-07-29T05:33:45;100240.0;;;18.0
58307;BMP280;44116;50.884;4.768;2023-07-29T05:35:45;100240.0;;;18.5
58307;BMP280;44116;50.884;4.768;2023-07-29T05:39:45;100240.0;;;18.4
58307;BMP280;44116;50.884;4.768;2023-07-29T05:41:45;100250.0;;;18.4
58307;BMP280;44116;50.884;4.768;2023-07-29T05:43:45;100250.0;;;18.0
58307;BMP280;44116;50.884;4.768;2023-07-29T05:47:45;100240.0;;;18.2
58307;BMP280;44116;50.884;4.768;2023-07-29T05:51:45;100250.0;;;18.5
58307;BMP280;44116;50.884;4.768;2023-07-29T06:01:45;100260.0;;;19.2
58307;BMP280;44116;50.884;4.768;2023-07-29T06:03:45;100270.0;;;19.2
58307;BMP280;44116;50.884;4.768;2023-07-29T06:07:45;100280.0;;;19.5
58307;BMP280;44116;50.884;4.768;2023-07-29T06:09:45;100290.0;;;19.3
58307;BMP280;44116;50.884;4.768;2023-07-29T06:11:44;100300.0;;;19.3
58307;BMP280;44116;50.884;4.768;2023-07-29T06:13:45;100310.0;;;19.2
58307;BMP280;44116;50.884;4.768;2023-07-29T06:15:44;100310.0;;;19.3
58307;BMP280;44116;50.884;4.768;2023-07-29T06:17:44;100310.0;;;19.2
58307;BMP280;44116;50.884;4.768;2023-07-29T06:19:44;100310.0;;;18.9
58307;BMP280;44116;50.884;4.768;2023-07-29T06:21:44;100310.0;;;18.9
58307;BMP280;44116;50.884;4.768;2023-07-29T06:23:44;100310.0;;;18.9
58307;BMP280;44116;50.884;4.768;2023-07-29T06:25:44;100310.0;;;18.8
58307;BMP280;44116;50.884;4.768;2023-07-29T06:27:45;100310.0;;;19.0
58307;BMP280;44116;50.884;4.768;2023-07-29T06:29:44;100310.0;;;19.1
58307;BMP280;44116;50.884;4.768;2023-07-29T06:31:44;100320.0;;;19.1
58307;BMP280;44116;50.884;4.768;2023-07-29T06:33:44;100320.0;;;19.2
58307;BMP280;44116;50.884;4.768;2023-07-29T06:35:44;100310.0;;;19.5
58307;BMP280;44116;50.884;4.768;2023-07-29T06:37:44;100320.0;;;19.8
58307;BMP280;44116;50.884;4.768;2023-07-29T06:39:44;100320.0;;;19.8
58307;BMP280;44116;50.884;4.768;2023-07-29T06:41:44;100320.0;;;19.6
58307;BMP280;44116;50.884;4.768;2023-07-29T06:43:44;100320.0;;;19.9
58307;BMP280;44116;50.884;4.768;2023-07-29T06:45:44;100320.0;;;19.9
58307;BMP280;44116;50.884;4.768;2023-07-29T06:47:44;100330.0;;;20.2
58307;BMP280;44116;50.884;4.768;2023-07-29T06:49:45;100330.0;;;20.5
58307;BMP280;44116;50.884;4.768;2023-07-29T06:51:44;100330.0;;;20.6
58307;BMP280;44116;50.884;4.768;2023-07-29T06:53:44;100340.0;;;20.7
58307;BMP280;44116;50.884;4.768;2023-07-29T06:55:44;100340.0;;;20.8
58307;BMP280;44116;50.884;4.768;2023-07-29T06:57:44;100340.0;;;21.1
58307;BMP280;44116;50.884;4.768;2023-07-29T06:59:44;100340.0;;;21.3
58307;BMP280;44116;50.884;4.768;2023-07-29T07:03:44;100340.0;;;21.4
58307;BMP280;44116;50.884;4.768;2023-07-29T07:07:44;100350.0;;;21.1
58307;BMP280;44116;50.884;4.768;2023-07-29T07:09:44;100350.0;;;20.8
58307;BMP280;44116;50.884;4.768;2023-07-29T07:11:44;100350.0;;;20.8
58307;BMP280;44116;50.884;4.768;2023-07-29T07:13:44;100350.0;;;20.7
58307;BMP280;44116;50.884;4.768;2023-07-29T07:15:44;100360.0;;;21.1
58307;BMP280;44116;50.884;4.768;2023-07-29T07:17:44;100360.0;;;21.1
58307;BMP280;44116;50.884;4.768;2023-07-29T07:21:44;100360.0;;;20.8
58307;BMP280;44116;50.884;4.768;2023-07-29T07:25:44;100360.0;;;21.0
58307;BMP280;44116;50.884;4.768;2023-07-29T07:27:44;100370.0;;;21.1
58307;BMP280;44116;50.884;4.768;2023-07-29T07:33:44;100370.0;;;20.7
58307;BMP280;44116;50.884;4.768;2023-07-29T07:35:44;100380.0;;;20.8
58307;BMP280;44116;50.884;4.768;2023-07-29T07:37:44;100380.0;;;20.8
58307;BMP280;44116;50.884;4.768;2023-07-29T07:39:44;100380.0;;;20.8
58307;BMP280;44116;50.884;4.768;2023-07-29T07:41:44;100380.0;;;21.5
58307;BMP280;44116;50.884;4.768;2023-07-29T07:43:44;100380.0;;;21.3
58307;BMP280;44116;50.884;4.768;2023-07-29T07:45:44;100390.0;;;21.2
58307;BMP280;44116;50.884;4.768;2023-07-29T07:47:45;100390.0;;;21.2
58307;BMP280;44116;50.884;4.768;2023-07-29T07:49:45;100390.0;;;21.4
58307;BMP280;44116;50.884;4.768;2023-07-29T07:51:45;100390.0;;;21.2
58307;BMP280;44116;50.884;4.768;2023-07-29T07:53:45;100390.0;;;21.3
58307;BMP280;44116;50.884;4.768;2023-07-29T07:55:45;100390.0;;;21.3
58307;BMP280;44116;50.884;4.768;2023-07-29T07:59:45;100400.0;;;20.9
58307;BMP280;44116;50.884;4.768;2023-07-29T08:01:45;100390.0;;;21.0
58307;BMP280;44116;50.884;4.768;2023-07-29T08:05:45;100390.0;;;21.1
58307;BMP280;44116;50.884;4.768;2023-07-29T08:07:45;100390.0;;;21.0
58307;BMP280;44116;50.884;4.768;2023-07-29T08:09:45;100390.0;;;21.2
58307;BMP280;44116;50.884;4.768;2023-07-29T08:13:45;100390.0;;;21.2
58307;BMP280;44116;50.884;4.768;2023-07-29T08:15:45;100390.0;;;21.7
58307;BMP280;44116;50.884;4.768;2023-07-29T08:17:45;100390.0;;;21.5
58307;BMP280;44116;50.884;4.768;2023-07-29T08:19:45;100390.0;;;21.4
58307;BMP280;44116;50.884;4.768;2023-07-29T08:23:45;100380.0;;;21.9
58307;BMP280;44116;50.884;4.768;2023-07-29T08:27:45;100380.0;;;21.7
58307;BMP280;44116;50.884;4.768;2023-07-29T08:29:45;100390.0;;;21.6
58307;BMP280;44116;50.884;4.768;2023-07-29T08:31:45;100390.0;;;21.7
58307;BMP280;44116;50.884;4.768;2023-07-29T08:33:45;100380.0;;;21.9
58307;BMP280;44116;50.884;4.768;2023-07-29T08:35:45;100380.0;;;22.3
58307;BMP280;44116;50.884;4.768;2023-07-29T08:37:45;100380.0;;;22.0
58307;BMP280;44116;50.884;4.768;2023-07-29T08:39:45;100370.0;;;21.9
58307;BMP280;44116;50.884;4.768;2023-07-29T08:41:55;100370.0;;;21.9
58307;BMP280;44116;50.884;4.768;2023-07-29T08:43:48;100380.0;;;21.7
58307;BMP280;44116;50.884;4.768;2023-07-29T08:45:45;100380.0;;;21.7
58307;BMP280;44116;50.884;4.768;2023-07-29T08:53:46;100370.0;;;21.8
58307;BMP280;44116;50.884;4.768;2023-07-29T08:55:46;100370.0;;;22.1
58307;BMP280;44116;50.884;4.768;2023-07-29T09:01:46;100370.0;;;22.3
58307;BMP280;44116;50.884;4.768;2023-07-29T09:03:46;100370.0;;;22.4
58307;BMP280;44116;50.884;4.768;2023-07-29T09:07:46;100380.0;;;22.8
58307;BMP280;44116;50.884;4.768;2023-07-29T09:09:46;100380.0;;;22.9
58307;BMP280;44116;50.884;4.768;2023-07-29T09:11:46;100380.0;;;22.8
58307;BMP280;44116;50.884;4.768;2023-07-29T09:19:47;100370.0;;;23.2
58307;BMP280;44116;50.884;4.768;2023-07-29T09:21:47;100370.0;;;23.4
58307;BMP280;44116;50.884;4.768;2023-07-29T09:23:47;100370.0;;;23.4
58307;BMP280;44116;50.884;4.768;2023-07-29T09:27:47;100370.0;;;23.9
58307;BMP280;44116;50.884;4.768;2023-07-29T09:31:47;100360.0;;;24.3
58307;BMP280;44116;50.884;4.768;2023-07-29T09:33:47;100360.0;;;24.4
58307;BMP280;44116;50.884;4.768;2023-07-29T09:35:47;100370.0;;;24.6
58307;BMP280;44116;50.884;4.768;2023-07-29T09:37:47;100370.0;;;24.8
58307;BMP280;44116;50.884;4.768;2023-07-29T09:41:47;100350.0;;;24.5
58307;BMP280;44116;50.884;4.768;2023-07-29T09:43:48;100360.0;;;24.2
58307;BMP280;44116;50.884;4.768;2023-07-29T09:45:48;100360.0;;;24.4
58307;BMP280;44116;50.884;4.768;2023-07-29T09:47:48;100360.0;;;24.1
58307;BMP280;44116;50.884;4.768;2023-07-29T09:49:48;100360.0;;;24.0
58307;BMP280;44116;50.884;4.768;2023-07-29T09:51:48;100350.0;;;24.5
58307;BMP280;44116;50.884;4.768;2023-07-29T09:53:49;100340.0;;;24.4
58307;BMP280;44116;50.884;4.768;2023-07-29T09:55:48;100350.0;;;24.5
58307;BMP280;44116;50.884;4.768;2023-07-29T09:57:50;100350.0;;;24.8
58307;BMP280;44116;50.884;4.768;2023-07-29T09:59:55;100350.0;;;24.5
58307;BMP280;44116;50.884;4.768;2023-07-29T10:01:48;100350.0;;;23.8
58307;BMP280;44116;50.884;4.768;2023-07-29T10:03:48;100350.0;;;23.8
58307;BMP280;44116;50.884;4.768;2023-07-29T10:07:49;100340.0;;;23.6
58307;BMP280;44116;50.884;4.768;2023-07-29T10:09:49;100350.0;;;24.0
58307;BMP280;44116;50.884;4.768;2023-07-29T10:13:49;100350.0;;;24.0
58307;BMP280;44116;50.884;4.768;2023-07-29T10:15:49;100350.0;;;23.9
58307;BMP280;44116;50.884;4.768;2023-07-29T10:17:49;100350.0;;;23.8
58307;BMP280;44116;50.884;4.768;2023-07-29T10:21:49;100340.0;;;24.3
58307;BMP280;44116;50.884;4.768;2023-07-29T10:27:52;100340.0;;;23.9
58307;BMP280;44116;50.884;4.768;2023-07-29T10:29:50;100350.0;;;23.7
58307;BMP280;44116;50.884;4.768;2023-07-29T10:35:50;100350.0;;;23.0
58307;BMP280;44116;50.884;4.768;2023-07-29T10:37:50;100350.0;;;23.2
58307;BMP280;44116;50.884;4.768;2023-07-29T10:39:52;100350.0;;;22.9
58307;BMP280;44116;50.884;4.768;2023-07-29T10:41:54;100350.0;;;23.1
58307;BMP280;44116;50.884;4.768;2023-07-29T10:43:51;100360.0;;;23.2
58307;BMP280;44116;50.884;4.768;2023-07-29T10:45:51;100350.0;;;22.9
58307;BMP280;44116;50.884;4.768;2023-07-29T10:49:52;100370.0;;;21.9
58307;BMP280;44116;50.884;4.768;2023-07-29T10:51:51;100370.0;;;21.6
58307;BMP280;44116;50.884;4.768;2023-07-29T10:55:51;100350.0;;;21.2
58307;BMP280;44116;50.884;4.768;2023-07-29T10:59:53;100330.0;;;21.4
58307;BMP280;44116;50.884;4.768;2023-07-29T11:01:52;100320.0;;;21.4
58307;BMP280;44116;50.884;4.768;2023-07-29T11:05:52;100330.0;;;22.0
58307;BMP280;44116;50.884;4.768;2023-07-29T11:07:52;100330.0;;;21.7
58307;BMP280;44116;50.884;4.768;2023-07-29T11:09:53;100330.0;;;21.7
58307;BMP280;44116;50.884;4.768;2023-07-29T11:13:52;100320.0;;;21.9
58307;BMP280;44116;50.884;4.768;2023-07-29T11:17:53;100310.0;;;22.0
58307;BMP280;44116;50.884;4.768;2023-07-29T11:19:52;100310.0;;;22.0
58307;BMP280;44116;50.884;4.768;2023-07-29T11:21:52;100310.0;;;22.7
58307;BMP280;44116;50.884;4.768;2023-07-29T11:23:53;100310.0;;;22.6
58307;BMP280;44116;50.884;4.768;2023-07-29T11:25:53;100320.0;;;23.0
58307;BMP280;44116;50.884;4.768;2023-07-29T11:27:54;100320.0;;;22.9
58307;BMP280;44116;50.884;4.768;2023-07-29T11:31:53;100330.0;;;23.6
58307;BMP280;44116;50.884;4.768;2023-07-29T11:33:53;100330.0;;;24.1
58307;BMP280;44116;50.884;4.768;2023-07-29T11:35:53;100330.0;;;23.9
58307;BMP280;44116;50.884;4.768;2023-07-29T11:37:54;100320.0;;;23.0
58307;BMP280;44116;50.884;4.768;2023-07-29T11:39:53;100320.0;;;23.4
58307;BMP280;44116;50.884;4.768;2023-07-29T11:41:53;100330.0;;;23.6
58307;BMP280;44116;50.884;4.768;2023-07-29T11:45:54;100330.0;;;23.1
58307;BMP280;44116;50.884;4.768;2023-07-29T11:47:54;100330.0;;;23.3
58307;BMP280;44116;50.884;4.768;2023-07-29T11:49:54;100340.0;;;23.5
58307;BMP280;44116;50.884;4.768;2023-07-29T11:51:54;100330.0;;;23.4
58307;BMP280;44116;50.884;4.768;2023-07-29T11:53:54;100340.0;;;23.3
58307;BMP280;44116;50.884;4.768;2023-07-29T11:57:54;100350.0;;;24.0
58307;BMP280;44116;50.884;4.768;2023-07-29T11:59:54;100340.0;;;24.0
58307;BMP280;44116;50.884;4.768;2023-07-29T12:05:55;100340.0;;;24.5
58307;BMP280;44116;50.884;4.768;2023-07-29T12:07:55;100340.0;;;24.3
58307;BMP280;44116;50.884;4.768;2023-07-29T12:11:55;100350.0;;;23.9
58307;BMP280;44116;50.884;4.768;2023-07-29T12:13:55;100350.0;;;24.2
58307;BMP280;44116;50.884;4.768;2023-07-29T12:16:00;100350.0;;;23.8
58307;BMP280;44116;50.884;4.768;2023-07-29T12:17:56;100350.0;;;24.1
58307;BMP280;44116;50.884;4.768;2023-07-29T12:19:55;100340.0;;;24.1
58307;BMP280;44116;50.884;4.768;2023-07-29T12:21:55;100340.0;;;24.0
58307;BMP280;44116;50.884;4.768;2023-07-29T12:23:56;100340.0;;;23.9
58307;BMP280;44116;50.884;4.768;2023-07-29T12:25:56;100340.0;;;24.2
58307;BMP280;44116;50.884;4.768;2023-07-29T12:27:56;100340.0;;;24.2
58307;BMP280;44116;50.884;4.768;2023-07-29T12:29:56;100330.0;;;23.5
58307;BMP280;44116;50.884;4.768;2023-07-29T12:31:57;100330.0;;;23.9
58307;BMP280;44116;50.884;4.768;2023-07-29T12:33:56;100330.0;;;23.8
58307;BMP280;44116;50.884;4.768;2023-07-29T12:35:56;100340.0;;;23.7
58307;BMP280;44116;50.884;4.768;2023-07-29T12:37:58;100340.0;;;23.5
58307;BMP280;44116;50.884;4.768;2023-07-29T12:39:56;100340.0;;;23.3
58307;BMP280;44116;50.884;4.768;2023-07-29T12:41:58;100340.0;;;23.1
58307;BMP280;44116;50.884;4.768;2023-07-29T12:45:57;100340.0;;;23.2
58307;BMP280;44116;50.884;4.768;2023-07-29T12:47:57;100350.0;;;22.9
58307;BMP280;44116;50.884;4.768;2023-07-29T12:51:57;100350.0;;;22.8
58307;BMP280;44116;50.884;4.768;2023-07-29T12:53:57;100350.0;;;22.7
58307;BMP280;44116;50.884;4.768;2023-07-29T12:55:57;100350.0;;;22.5
58307;BMP280;44116;50.884;4.768;2023-07-29T12:57:57;100360.0;;;21.8
58307;BMP280;44116;50.884;4.768;2023-07-29T13:01:58;100350.0;;;21.5
58307;BMP280;44116;50.884;4.768;2023-07-29T13:03:58;100340.0;;;21.4
58307;BMP280;44116;50.884;4.768;2023-07-29T13:05:58;100340.0;;;21.2
58307;BMP280;44116;50.884;4.768;2023-07-29T13:07:58;100320.0;;;20.7
58307;BMP280;44116;50.884;4.768;2023-07-29T13:09:58;100320.0;;;21.3
58307;BMP280;44116;50.884;4.768;2023-07-29T13:11:58;100320.0;;;21.5
58307;BMP280;44116;50.884;4.768;2023-07-29T13:13:58;100310.0;;;21.5
58307;BMP280;44116;50.884;4.768;2023-07-29T13:15:58;100310.0;;;21.7
58307;BMP280;44116;50.884;4.768;2023-07-29T13:17:58;100310.0;;;21.9
58307;BMP280;44116;50.884;4.768;2023-07-29T13:19:58;100310.0;;;21.6
58307;BMP280;44116;50.884;4.768;2023-07-29T13:21:58;100300.0;;;22.2
58307;BMP280;44116;50.884;4.768;2023-07-29T13:23:58;100300.0;;;22.4
58307;BMP280;44116;50.884;4.768;2023-07-29T13:25:59;100300.0;;;22.7
58307;BMP280;44116;50.884;4.768;2023-07-29T13:31:59;100300.0;;;23.5
58307;BMP280;44116;50.884;4.768;2023-07-29T13:37:59;100310.0;;;24.1
58307;BMP280;44116;50.884;4.768;2023-07-29T13:39:59;100310.0;;;24.3
58307;BMP280;44116;50.884;4.768;2023-07-29T13:41:59;100310.0;;;24.4
58307;BMP280;44116;50.884;4.768;2023-07-29T13:43:59;100320.0;;;24.3
58307;BMP280;44116;50.884;4.768;2023-07-29T13:46:00;100320.0;;;24.9
58307;BMP280;44116;50.884;4.768;2023-07-29T13:50:00;100350.0;;;24.0
58307;BMP280;44116;50.884;4.768;2023-07-29T13:52:00;100350.0;;;24.1
58307;BMP280;44116;50.884;4.768;2023-07-29T13:54:00;100340.0;;;24.1
58307;BMP280;44116;50.884;4.768;2023-07-29T13:56:00;100350.0;;;24.4
58307;BMP280;44116;50.884;4.768;2023-07-29T13:58:00;100350.0;;;24.3
58307;BMP280;44116;50.884;4.768;2023-07-29T14:00:01;100340.0;;;24.8
58307;BMP280;44116;50.884;4.768;2023-07-29T14:08:01;100340.0;;;24.3
58307;BMP280;44116;50.884;4.768;2023-07-29T14:10:01;100340.0;;;24.6
58307;BMP280;44116;50.884;4.768;2023-07-29T14:12:01;100340.0;;;25.1
58307;BMP280;44116;50.884;4.768;2023-07-29T14:14:01;100330.0;;;24.7
58307;BMP280;44116;50.884;4.768;2023-07-29T14:16:02;100330.0;;;24.8
58307;BMP280;44116;50.884;4.768;2023-07-29T14:18:02;100340.0;;;25.3
58307;BMP280;44116;50.884;4.768;2023-07-29T14:20:02;100340.0;;;25.0
58307;BMP280;44116;50.884;4.768;2023-07-29T14:22:02;100340.0;;;24.1
58307;BMP280;44116;50.884;4.768;2023-07-29T14:24:02;100330.0;;;23.8
58307;BMP280;44116;50.884;4.768;2023-07-29T14:26:02;100330.0;;;23.8
58307;BMP280;44116;50.884;4.768;2023-07-29T14:28:03;100340.0;;;24.2
58307;BMP280;44116;50.884;4.768;2023-07-29T14:30:03;100350.0;;;23.9
58307;BMP280;44116;50.884;4.768;2023-07-29T14:32:03;100350.0;;;23.5
58307;BMP280;44116;50.884;4.768;2023-07-29T14:34:03;100350.0;;;23.8
58307;BMP280;44116;50.884;4.768;2023-07-29T14:36:03;100350.0;;;24.3
58307;BMP280;44116;50.884;4.768;2023-07-29T14:38:03;100340.0;;;25.2
58307;BMP280;44116;50.884;4.768;2023-07-29T14:40:04;100340.0;;;25.5
58307;BMP280;44116;50.884;4.768;2023-07-29T14:42:04;100330.0;;;25.4
58307;BMP280;44116;50.884;4.768;2023-07-29T14:46:04;100340.0;;;24.6
58307;BMP280;44116;50.884;4.768;2023-07-29T14:48:04;100350.0;;;24.9
58307;BMP280;44116;50.884;4.768;2023-07-29T14:50:04;100350.0;;;25.5
58307;BMP280;44116;50.884;4.768;2023-07-29T14:52:05;100340.0;;;25.7
58307;BMP280;44116;50.884;4.768;2023-07-29T14:54:04;100350.0;;;25.5
58307;BMP280;44116;50.884;4.768;2023-07-29T14:56:04;100350.0;;;25.2
58307;BMP280;44116;50.884;4.768;2023-07-29T14:58:05;100350.0;;;25.0
58307;BMP280;44116;50.884;4.768;2023-07-29T15:02:05;100340.0;;;24.2